Terminal Aerodrome Forecast
Issued by NWS

Home | Current Version | Previous Version | Text Only | Print | Product List | Glossary On
Versions: 1 2 3 4 5 6 7 8 9 10 11 12 13 14 15 16 17 18 19 20 21 22 23
000
FTAK31 PANC 231740
TAFADU
TAF
PADU 231740Z 2318/2418 15008KT P6SM -RA SCT020 BKN035
      TEMPO 2318/2322 BKN020
     FM232200 22008KT P6SM -SHRA SCT015 BKN025
     FM240800 18005KT P6SM SCT025 BKN035
     FM241700 17015KT 6SM -RA BKN020 OVC030=

USA.gov is the U.S. government's official web portal to all federal, state and local government web resources and services.